sensor_id;sensor_type;location;lat;lon;timestamp;temperature;humidity
2260;DHT22;333;48.800;9.530;2024-03-23T00:55:00;6.50;99.60
2260;DHT22;333;48.800;9.530;2024-03-23T00:57:27;6.50;99.60
2260;DHT22;333;48.800;9.530;2024-03-23T00:59:53;6.50;99.60
2260;DHT22;333;48.800;9.530;2024-03-23T01:02:20;6.60;99.60
2260;DHT22;333;48.800;9.530;2024-03-23T01:04:46;6.50;99.60
2260;DHT22;333;48.800;9.530;2024-03-23T01:07:13;6.30;99.60
2260;DHT22;333;48.800;9.530;2024-03-23T01:09:39;6.30;99.60
2260;DHT22;333;48.800;9.530;2024-03-23T01:12:07;6.30;99.60
2260;DHT22;333;48.800;9.530;2024-03-23T01:14:33;6.30;99.60
2260;DHT22;333;48.800;9.530;2024-03-23T01:17:01;6.20;99.60
2260;DHT22;333;48.800;9.530;2024-03-23T01:19:27;6.10;99.60
2260;DHT22;333;48.800;9.530;2024-03-23T01:21:54;6.10;99.60
2260;DHT22;333;48.800;9.530;2024-03-23T01:24:20;6.10;99.60
2260;DHT22;333;48.800;9.530;2024-03-23T01:26:47;6.10;99.60
2260;DHT22;333;48.800;9.530;2024-03-23T01:29:14;6.10;99.60
2260;DHT22;333;48.800;9.530;2024-03-23T01:31:41;6.30;99.60
2260;DHT22;333;48.800;9.530;2024-03-23T01:34:07;6.40;99.60
2260;DHT22;333;48.800;9.530;2024-03-23T01:36:34;6.50;99.60
2260;DHT22;333;48.800;9.530;2024-03-23T01:39:00;6.60;99.60
2260;DHT22;333;48.800;9.530;2024-03-23T01:41:27;6.60;99.60
2260;DHT22;333;48.800;9.530;2024-03-23T01:43:55;6.70;99.60
2260;DHT22;333;48.800;9.530;2024-03-23T01:46:24;6.70;99.60
2260;DHT22;333;48.800;9.530;2024-03-23T01:48:50;6.60;99.60
2260;DHT22;333;48.800;9.530;2024-03-23T01:51:17;6.60;99.60
2260;DHT22;333;48.800;9.530;2024-03-23T01:53:43;6.70;99.60
2260;DHT22;333;48.800;9.530;2024-03-23T01:56:10;6.70;99.60
2260;DHT22;333;48.800;9.530;2024-03-23T01:58:35;6.70;99.60
2260;DHT22;333;48.800;9.530;2024-03-23T02:01:03;6.70;99.60
2260;DHT22;333;48.800;9.530;2024-03-23T02:03:31;6.80;99.60
2260;DHT22;333;48.800;9.530;2024-03-23T02:05:58;6.80;99.60
2260;DHT22;333;48.800;9.530;2024-03-23T02:08:24;6.80;99.60
2260;DHT22;333;48.800;9.530;2024-03-23T02:10:51;7.00;99.60
2260;DHT22;333;48.800;9.530;2024-03-23T02:13:18;7.00;99.60
2260;DHT22;333;48.800;9.530;2024-03-23T02:15:45;7.10;99.60
2260;DHT22;333;48.800;9.530;2024-03-23T02:18:11;7.10;99.60
2260;DHT22;333;48.800;9.530;2024-03-23T02:20:39;7.00;99.60
2260;DHT22;333;48.800;9.530;2024-03-23T02:23:13;7.10;99.60
2260;DHT22;333;48.800;9.530;2024-03-23T02:25:40;7.10;99.60
2260;DHT22;333;48.800;9.530;2024-03-23T02:28:06;7.00;99.60
2260;DHT22;333;48.800;9.530;2024-03-23T02:30:33;7.00;99.60
2260;DHT22;333;48.800;9.530;2024-03-23T02:32:58;6.90;99.60
2260;DHT22;333;48.800;9.530;2024-03-23T02:35:25;6.80;99.60
2260;DHT22;333;48.800;9.530;2024-03-23T02:37:51;6.80;99.60
2260;DHT22;333;48.800;9.530;2024-03-23T02:40:20;6.80;99.60
2260;DHT22;333;48.800;9.530;2024-03-23T02:42:46;6.70;99.60
2260;DHT22;333;48.800;9.530;2024-03-23T02:45:13;6.70;99.60
2260;DHT22;333;48.800;9.530;2024-03-23T02:47:39;6.70;99.60
2260;DHT22;333;48.800;9.530;2024-03-23T02:50:06;6.70;99.60
2260;DHT22;333;48.800;9.530;2024-03-23T02:52:33;6.80;99.60
2260;DHT22;333;48.800;9.530;2024-03-23T02:54:59;6.70;99.60
2260;DHT22;333;48.800;9.530;2024-03-23T02:57:29;6.70;99.60
2260;DHT22;333;48.800;9.530;2024-03-23T02:59:55;6.80;99.60
2260;DHT22;333;48.800;9.530;2024-03-23T03:02:22;6.90;99.60
2260;DHT22;333;48.800;9.530;2024-03-23T03:04:48;6.90;99.60
2260;DHT22;333;48.800;9.530;2024-03-23T03:07:14;6.90;99.60
2260;DHT22;333;48.800;9.530;2024-03-23T03:09:41;7.00;99.60
2260;DHT22;333;48.800;9.530;2024-03-23T03:12:07;7.00;99.60
2260;DHT22;333;48.800;9.530;2024-03-23T03:14:36;6.90;99.60
2260;DHT22;333;48.800;9.530;2024-03-23T03:17:02;7.00;99.60
2260;DHT22;333;48.800;9.530;2024-03-23T03:19:29;6.90;99.60
2260;DHT22;333;48.800;9.530;2024-03-23T03:21:55;6.90;99.60
2260;DHT22;333;48.800;9.530;2024-03-23T03:24:22;6.80;99.60
2260;DHT22;333;48.800;9.530;2024-03-23T03:26:48;6.80;99.60
2260;DHT22;333;48.800;9.530;2024-03-23T03:29:15;6.80;99.60
2260;DHT22;333;48.800;9.530;2024-03-23T03:31:42;6.70;99.60
2260;DHT22;333;48.800;9.530;2024-03-23T03:34:09;6.80;99.60
2260;DHT22;333;48.800;9.530;2024-03-23T03:36:35;6.70;99.60
2260;DHT22;333;48.800;9.530;2024-03-23T03:39:02;6.70;99.60
2260;DHT22;333;48.800;9.530;2024-03-23T03:41:29;6.80;99.60
2260;DHT22;333;48.800;9.530;2024-03-23T03:43:56;6.80;99.60
2260;DHT22;333;48.800;9.530;2024-03-23T03:46:22;6.80;99.60
2260;DHT22;333;48.800;9.530;2024-03-23T03:48:50;6.80;99.60
2260;DHT22;333;48.800;9.530;2024-03-23T03:51:16;6.70;99.60
2260;DHT22;333;48.800;9.530;2024-03-23T03:53:42;6.60;99.60
2260;DHT22;333;48.800;9.530;2024-03-23T03:56:08;6.60;99.60
2260;DHT22;333;48.800;9.530;2024-03-23T03:58:35;6.60;99.60
2260;DHT22;333;48.800;9.530;2024-03-23T04:01:01;6.50;99.60
2260;DHT22;333;48.800;9.530;2024-03-23T04:03:28;6.60;99.60
2260;DHT22;333;48.800;9.530;2024-03-23T04:05:55;6.60;99.60
2260;DHT22;333;48.800;9.530;2024-03-23T04:08:22;6.50;99.60
2260;DHT22;333;48.800;9.530;2024-03-23T04:10:48;6.50;99.60
2260;DHT22;333;48.800;9.530;2024-03-23T04:13:15;6.50;99.60
2260;DHT22;333;48.800;9.530;2024-03-23T04:15:41;6.50;99.60
2260;DHT22;333;48.800;9.530;2024-03-23T04:18:08;6.50;99.60
2260;DHT22;333;48.800;9.530;2024-03-23T04:20:34;6.60;99.60
2260;DHT22;333;48.800;9.530;2024-03-23T04:23:03;6.60;99.60
2260;DHT22;333;48.800;9.530;2024-03-23T04:25:29;6.70;99.60
2260;DHT22;333;48.800;9.530;2024-03-23T04:27:57;7.80;99.60
2260;DHT22;333;48.800;9.530;2024-03-23T04:30:23;9.40;99.60
2260;DHT22;333;48.800;9.530;2024-03-23T04:32:50;10.80;99.60
2260;DHT22;333;48.800;9.530;2024-03-23T04:35:16;11.50;99.60
2260;DHT22;333;48.800;9.530;2024-03-23T04:37:45;12.10;99.60
2260;DHT22;333;48.800;9.530;2024-03-23T04:40:13;12.50;99.60
2260;DHT22;333;48.800;9.530;2024-03-23T04:42:40;12.80;99.60
2260;DHT22;333;48.800;9.530;2024-03-23T04:45:07;12.90;99.60
2260;DHT22;333;48.800;9.530;2024-03-23T04:47:35;13.00;99.60
2260;DHT22;333;48.800;9.530;2024-03-23T04:50:02;13.10;99.60
2260;DHT22;333;48.800;9.530;2024-03-23T04:52:29;13.20;99.60
2260;DHT22;333;48.800;9.530;2024-03-23T04:54:56;13.20;99.60
2260;DHT22;333;48.800;9.530;2024-03-23T04:57:25;13.40;99.60
2260;DHT22;333;48.800;9.530;2024-03-23T04:59:51;13.30;99.60
2260;DHT22;333;48.800;9.530;2024-03-23T05:02:17;12.30;99.60
2260;DHT22;333;48.800;9.530;2024-03-23T05:04:43;11.90;99.60
2260;DHT22;333;48.800;9.530;2024-03-23T05:07:10;11.90;99.60
2260;DHT22;333;48.800;9.530;2024-03-23T05:09:37;12.00;99.60
2260;DHT22;333;48.800;9.530;2024-03-23T05:12:04;12.00;99.60
2260;DHT22;333;48.800;9.530;2024-03-23T05:14:31;11.90;99.60
2260;DHT22;333;48.800;9.530;2024-03-23T05:16:58;11.80;99.60
2260;DHT22;333;48.800;9.530;2024-03-23T05:19:24;11.70;99.60
2260;DHT22;333;48.800;9.530;2024-03-23T05:21:51;11.70;99.60
2260;DHT22;333;48.800;9.530;2024-03-23T05:24:18;11.50;99.60
2260;DHT22;333;48.800;9.530;2024-03-23T05:26:45;11.30;99.60
2260;DHT22;333;48.800;9.530;2024-03-23T05:29:11;11.10;99.60
2260;DHT22;333;48.800;9.530;2024-03-23T05:31:40;10.90;99.60
2260;DHT22;333;48.800;9.530;2024-03-23T05:34:07;10.70;99.60
2260;DHT22;333;48.800;9.530;2024-03-23T05:36:34;10.50;99.60
2260;DHT22;333;48.800;9.530;2024-03-23T05:39:01;10.40;99.60
2260;DHT22;333;48.800;9.530;2024-03-23T05:41:28;10.30;99.60
2260;DHT22;333;48.800;9.530;2024-03-23T05:43:54;10.20;99.60
2260;DHT22;333;48.800;9.530;2024-03-23T05:46:21;10.20;99.60
2260;DHT22;333;48.800;9.530;2024-03-23T05:48:48;10.20;99.60
2260;DHT22;333;48.800;9.530;2024-03-23T05:51:16;10.20;99.60
2260;DHT22;333;48.800;9.530;2024-03-23T05:53:42;10.20;99.60
2260;DHT22;333;48.800;9.530;2024-03-23T05:56:09;10.10;99.60
2260;DHT22;333;48.800;9.530;2024-03-23T05:58:35;10.10;99.60
2260;DHT22;333;48.800;9.530;2024-03-23T06:01:02;10.10;99.60
2260;DHT22;333;48.800;9.530;2024-03-23T06:03:29;10.10;99.60
2260;DHT22;333;48.800;9.530;2024-03-23T06:05:57;10.10;99.60
2260;DHT22;333;48.800;9.530;2024-03-23T06:08:23;10.00;99.60
2260;DHT22;333;48.800;9.530;2024-03-23T06:10:50;10.00;99.60
2260;DHT22;333;48.800;9.530;2024-03-23T06:13:16;10.00;99.60
2260;DHT22;333;48.800;9.530;2024-03-23T06:15:44;9.90;99.60
2260;DHT22;333;48.800;9.530;2024-03-23T06:18:11;9.80;99.60
2260;DHT22;333;48.800;9.530;2024-03-23T06:20:38;9.80;99.60
2260;DHT22;333;48.800;9.530;2024-03-23T06:23:05;9.80;99.60
2260;DHT22;333;48.800;9.530;2024-03-23T06:25:32;9.80;99.60
2260;DHT22;333;48.800;9.530;2024-03-23T06:27:58;9.70;99.60
2260;DHT22;333;48.800;9.530;2024-03-23T06:30:27;9.70;99.60
2260;DHT22;333;48.800;9.530;2024-03-23T06:32:53;9.80;99.60
2260;DHT22;333;48.800;9.530;2024-03-23T06:35:20;9.70;99.60
2260;DHT22;333;48.800;9.530;2024-03-23T06:37:46;9.70;99.60
2260;DHT22;333;48.800;9.530;2024-03-23T06:40:14;9.60;99.60
2260;DHT22;333;48.800;9.530;2024-03-23T06:42:40;9.60;99.60
2260;DHT22;333;48.800;9.530;2024-03-23T06:45:08;9.60;99.60
2260;DHT22;333;48.800;9.530;2024-03-23T06:47:34;9.50;99.60
2260;DHT22;333;48.800;9.530;2024-03-23T06:50:02;9.50;99.60
2260;DHT22;333;48.800;9.530;2024-03-23T06:52:28;9.40;99.60
2260;DHT22;333;48.800;9.530;2024-03-23T06:54:55;9.40;99.60
2260;DHT22;333;48.800;9.530;2024-03-23T06:57:22;9.40;99.60
2260;DHT22;333;48.800;9.530;2024-03-23T06:59:49;9.40;99.60
2260;DHT22;333;48.800;9.530;2024-03-23T07:02:15;9.50;99.60
2260;DHT22;333;48.800;9.530;2024-03-23T07:04:42;9.60;99.60
2260;DHT22;333;48.800;9.530;2024-03-23T07:07:08;9.60;99.60
2260;DHT22;333;48.800;9.530;2024-03-23T07:09:35;9.60;99.60
2260;DHT22;333;48.800;9.530;2024-03-23T07:12:01;9.60;99.60
2260;DHT22;333;48.800;9.530;2024-03-23T07:14:29;9.60;99.60
2260;DHT22;333;48.800;9.530;2024-03-23T07:16:55;9.50;99.60
2260;DHT22;333;48.800;9.530;2024-03-23T07:19:22;9.50;99.60
2260;DHT22;333;48.800;9.530;2024-03-23T07:21:50;9.50;99.60
2260;DHT22;333;48.800;9.530;2024-03-23T07:24:17;9.50;99.60
2260;DHT22;333;48.800;9.530;2024-03-23T07:26:43;9.50;99.60
2260;DHT22;333;48.800;9.530;2024-03-23T07:29:10;9.60;99.60
2260;DHT22;333;48.800;9.530;2024-03-23T07:31:37;9.60;99.60
2260;DHT22;333;48.800;9.530;2024-03-23T07:34:04;9.60;99.60
2260;DHT22;333;48.800;9.530;2024-03-23T07:36:31;9.60;99.60
2260;DHT22;333;48.800;9.530;2024-03-23T07:38:58;9.60;99.60
2260;DHT22;333;48.800;9.530;2024-03-23T07:41:24;9.50;99.60
2260;DHT22;333;48.800;9.530;2024-03-23T07:43:50;9.50;99.60
2260;DHT22;333;48.800;9.530;2024-03-23T07:46:16;9.50;99.60
2260;DHT22;333;48.800;9.530;2024-03-23T07:48:46;9.50;99.60
2260;DHT22;333;48.800;9.530;2024-03-23T07:51:16;9.60;99.60
2260;DHT22;333;48.800;9.530;2024-03-23T07:53:44;9.60;99.60
2260;DHT22;333;48.800;9.530;2024-03-23T07:56:10;9.70;99.60
2260;DHT22;333;48.800;9.530;2024-03-23T07:58:37;9.70;99.60
2260;DHT22;333;48.800;9.530;2024-03-23T08:01:04;9.70;99.60
2260;DHT22;333;48.800;9.530;2024-03-23T08:03:33;9.60;99.60
2260;DHT22;333;48.800;9.530;2024-03-23T08:06:08;9.60;99.60
2260;DHT22;333;48.800;9.530;2024-03-23T08:08:35;9.60;99.60
2260;DHT22;333;48.800;9.530;2024-03-23T08:11:01;9.50;99.60
2260;DHT22;333;48.800;9.530;2024-03-23T08:13:29;9.50;99.60
2260;DHT22;333;48.800;9.530;2024-03-23T08:15:56;9.40;99.60
2260;DHT22;333;48.800;9.530;2024-03-23T08:18:23;9.30;99.60
2260;DHT22;333;48.800;9.530;2024-03-23T08:20:56;9.30;99.60
2260;DHT22;333;48.800;9.530;2024-03-23T08:23:25;9.20;99.60
2260;DHT22;333;48.800;9.530;2024-03-23T08:25:51;9.10;99.60
2260;DHT22;333;48.800;9.530;2024-03-23T08:28:18;9.00;99.60
2260;DHT22;333;48.800;9.530;2024-03-23T08:30:44;8.90;99.60
2260;DHT22;333;48.800;9.530;2024-03-23T08:33:11;8.90;99.60
2260;DHT22;333;48.800;9.530;2024-03-23T08:35:38;8.90;99.60
2260;DHT22;333;48.800;9.530;2024-03-23T08:38:05;9.00;99.60
2260;DHT22;333;48.800;9.530;2024-03-23T08:40:32;9.00;99.60
2260;DHT22;333;48.800;9.530;2024-03-23T08:42:59;9.10;99.60
2260;DHT22;333;48.800;9.530;2024-03-23T08:45:25;9.00;99.60
2260;DHT22;333;48.800;9.530;2024-03-23T08:47:52;8.90;99.60
2260;DHT22;333;48.800;9.530;2024-03-23T08:50:18;8.90;99.60
2260;DHT22;333;48.800;9.530;2024-03-23T08:52:45;8.80;99.60
2260;DHT22;333;48.800;9.530;2024-03-23T08:55:11;8.90;99.60
2260;DHT22;333;48.800;9.530;2024-03-23T08:57:39;9.00;99.60
2260;DHT22;333;48.800;9.530;2024-03-23T09:00:06;9.10;99.60
2260;DHT22;333;48.800;9.530;2024-03-23T09:02:34;9.10;99.60
2260;DHT22;333;48.800;9.530;2024-03-23T09:05:00;9.10;99.60
2260;DHT22;333;48.800;9.530;2024-03-23T09:07:30;9.30;99.60
2260;DHT22;333;48.800;9.530;2024-03-23T09:09:56;9.20;99.60
2260;DHT22;333;48.800;9.530;2024-03-23T09:12:23;9.20;99.60
2260;DHT22;333;48.800;9.530;2024-03-23T09:14:50;9.30;99.60
2260;DHT22;333;48.800;9.530;2024-03-23T09:17:19;9.30;99.60
2260;DHT22;333;48.800;9.530;2024-03-23T09:19:44;9.20;99.60
2260;DHT22;333;48.800;9.530;2024-03-23T09:22:11;9.10;99.60
2260;DHT22;333;48.800;9.530;2024-03-23T09:24:38;9.10;99.60
2260;DHT22;333;48.800;9.530;2024-03-23T09:27:05;9.10;99.60
2260;DHT22;333;48.800;9.530;2024-03-23T09:29:31;8.90;99.60
2260;DHT22;333;48.800;9.530;2024-03-23T09:32:00;9.00;99.60
2260;DHT22;333;48.800;9.530;2024-03-23T09:34:25;9.20;99.60
2260;DHT22;333;48.800;9.530;2024-03-23T09:36:52;9.30;99.60
2260;DHT22;333;48.800;9.530;2024-03-23T09:39:18;9.30;99.60
2260;DHT22;333;48.800;9.530;2024-03-23T09:41:46;9.30;99.60
2260;DHT22;333;48.800;9.530;2024-03-23T09:44:11;9.20;99.60
2260;DHT22;333;48.800;9.530;2024-03-23T09:46:39;9.00;99.60
2260;DHT22;333;48.800;9.530;2024-03-23T09:49:07;9.10;99.60
2260;DHT22;333;48.800;9.530;2024-03-23T09:51:36;9.50;99.60
2260;DHT22;333;48.800;9.530;2024-03-23T09:54:02;9.90;99.60
2260;DHT22;333;48.800;9.530;2024-03-23T09:56:29;9.90;99.60
2260;DHT22;333;48.800;9.530;2024-03-23T09:59:00;10.20;99.60
2260;DHT22;333;48.800;9.530;2024-03-23T10:01:29;10.30;99.60
2260;DHT22;333;48.800;9.530;2024-03-23T10:03:55;10.30;99.60
2260;DHT22;333;48.800;9.530;2024-03-23T10:06:24;10.50;99.60
2260;DHT22;333;48.800;9.530;2024-03-23T10:08:51;10.30;99.60
2260;DHT22;333;48.800;9.530;2024-03-23T10:11:19;10.10;99.60
2260;DHT22;333;48.800;9.530;2024-03-23T10:13:45;10.10;99.60
2260;DHT22;333;48.800;9.530;2024-03-23T10:16:21;10.20;99.60
2260;DHT22;333;48.800;9.530;2024-03-23T10:18:47;9.80;99.60
2260;DHT22;333;48.800;9.530;2024-03-23T10:21:15;9.80;99.60
2260;DHT22;333;48.800;9.530;2024-03-23T10:23:43;9.80;99.60
2260;DHT22;333;48.800;9.530;2024-03-23T10:26:17;9.70;99.60
2260;DHT22;333;48.800;9.530;2024-03-23T10:28:51;9.60;99.60
2260;DHT22;333;48.800;9.530;2024-03-23T10:31:18;9.60;99.60
2260;DHT22;333;48.800;9.530;2024-03-23T10:33:45;9.60;99.60
2260;DHT22;333;48.800;9.530;2024-03-23T10:36:13;9.60;99.60
2260;DHT22;333;48.800;9.530;2024-03-23T10:38:42;9.70;99.60
2260;DHT22;333;48.800;9.530;2024-03-23T10:41:10;9.60;99.60
2260;DHT22;333;48.800;9.530;2024-03-23T10:43:36;9.60;99.60
2260;DHT22;333;48.800;9.530;2024-03-23T10:46:04;9.70;99.60
2260;DHT22;333;48.800;9.530;2024-03-23T10:48:31;10.00;99.60
2260;DHT22;333;48.800;9.530;2024-03-23T10:50:58;10.40;99.60
2260;DHT22;333;48.800;9.530;2024-03-23T10:53:26;10.60;99.60
2260;DHT22;333;48.800;9.530;2024-03-23T10:55:55;10.60;99.60
2260;DHT22;333;48.800;9.530;2024-03-23T10:58:26;10.50;99.60
2260;DHT22;333;48.800;9.530;2024-03-23T11:00:54;10.30;99.60
2260;DHT22;333;48.800;9.530;2024-03-23T11:03:33;10.10;99.60
2260;DHT22;333;48.800;9.530;2024-03-23T11:06:02;10.00;99.60
2260;DHT22;333;48.800;9.530;2024-03-23T11:08:33;9.80;99.60
2260;DHT22;333;48.800;9.530;2024-03-23T11:11:14;9.70;99.60
2260;DHT22;333;48.800;9.530;2024-03-23T11:13:40;9.60;99.60
2260;DHT22;333;48.800;9.530;2024-03-23T11:16:14;9.30;99.60
2260;DHT22;333;48.800;9.530;2024-03-23T11:18:40;8.60;99.60
2260;DHT22;333;48.800;9.530;2024-03-23T11:21:07;7.40;99.60
2260;DHT22;333;48.800;9.530;2024-03-23T11:23:34;6.30;99.60
2260;DHT22;333;48.800;9.530;2024-03-23T11:26:01;5.60;99.60
2260;DHT22;333;48.800;9.530;2024-03-23T11:28:28;5.50;99.60
2260;DHT22;333;48.800;9.530;2024-03-23T11:30:55;5.60;99.60
2260;DHT22;333;48.800;9.530;2024-03-23T11:33:21;5.60;99.60
2260;DHT22;333;48.800;9.530;2024-03-23T11:35:49;5.70;99.60
2260;DHT22;333;48.800;9.530;2024-03-23T11:38:17;5.80;99.60
2260;DHT22;333;48.800;9.530;2024-03-23T11:40:46;5.80;99.60
2260;DHT22;333;48.800;9.530;2024-03-23T11:43:13;5.90;99.60
2260;DHT22;333;48.800;9.530;2024-03-23T11:45:43;6.10;99.60
2260;DHT22;333;48.800;9.530;2024-03-23T11:48:10;6.50;99.60
2260;DHT22;333;48.800;9.530;2024-03-23T11:50:40;7.10;99.60
2260;DHT22;333;48.800;9.530;2024-03-23T11:53:16;7.30;99.60
2260;DHT22;333;48.800;9.530;2024-03-23T11:55:45;7.50;99.60
2260;DHT22;333;48.800;9.530;2024-03-23T11:58:12;7.60;99.60
2260;DHT22;333;48.800;9.530;2024-03-23T12:00:39;7.70;99.60
2260;DHT22;333;48.800;9.530;2024-03-23T12:03:06;7.80;99.60
2260;DHT22;333;48.800;9.530;2024-03-23T12:05:34;8.00;99.60
2260;DHT22;333;48.800;9.530;2024-03-23T12:08:19;8.10;99.60
2260;DHT22;333;48.800;9.530;2024-03-23T12:10:49;7.80;99.60
2260;DHT22;333;48.800;9.530;2024-03-23T12:13:17;7.70;99.60
2260;DHT22;333;48.800;9.530;2024-03-23T12:15:44;7.70;99.60
2260;DHT22;333;48.800;9.530;2024-03-23T12:18:12;7.80;99.60
2260;DHT22;333;48.800;9.530;2024-03-23T12:20:40;7.80;99.60
2260;DHT22;333;48.800;9.530;2024-03-23T12:23:10;7.60;99.60
2260;DHT22;333;48.800;9.530;2024-03-23T12:25:37;7.70;99.60
2260;DHT22;333;48.800;9.530;2024-03-23T12:28:04;7.70;99.60
2260;DHT22;333;48.800;9.530;2024-03-23T12:30:32;7.70;99.60
2260;DHT22;333;48.800;9.530;2024-03-23T12:32:59;7.80;99.60
2260;DHT22;333;48.800;9.530;2024-03-23T12:35:27;7.80;99.60
2260;DHT22;333;48.800;9.530;2024-03-23T12:37:53;7.90;99.60
2260;DHT22;333;48.800;9.530;2024-03-23T12:40:20;8.00;99.60
2260;DHT22;333;48.800;9.530;2024-03-23T12:42:46;8.00;99.60
2260;DHT22;333;48.800;9.530;2024-03-23T12:45:13;7.90;99.60
2260;DHT22;333;48.800;9.530;2024-03-23T12:47:39;7.90;99.60
2260;DHT22;333;48.800;9.530;2024-03-23T12:50:06;7.90;99.60
2260;DHT22;333;48.800;9.530;2024-03-23T12:52:34;8.10;99.60
2260;DHT22;333;48.800;9.530;2024-03-23T12:55:00;8.00;99.60
2260;DHT22;333;48.800;9.530;2024-03-23T12:57:26;8.00;99.60
2260;DHT22;333;48.800;9.530;2024-03-23T12:59:53;8.00;99.60
2260;DHT22;333;48.800;9.530;2024-03-23T13:02:20;8.00;99.60
2260;DHT22;333;48.800;9.530;2024-03-23T13:04:49;8.00;99.60
2260;DHT22;333;48.800;9.530;2024-03-23T13:07:16;8.00;99.60
2260;DHT22;333;48.800;9.530;2024-03-23T13:09:44;8.10;99.60
2260;DHT22;333;48.800;9.530;2024-03-23T13:12:11;8.20;99.60
2260;DHT22;333;48.800;9.530;2024-03-23T13:14:38;8.10;99.60
2260;DHT22;333;48.800;9.530;2024-03-23T13:17:04;8.20;99.60
2260;DHT22;333;48.800;9.530;2024-03-23T13:19:31;8.10;99.60
2260;DHT22;333;48.800;9.530;2024-03-23T13:21:58;8.10;99.60
2260;DHT22;333;48.800;9.530;2024-03-23T13:24:26;8.20;99.60
2260;DHT22;333;48.800;9.530;2024-03-23T13:26:55;8.20;99.60
2260;DHT22;333;48.800;9.530;2024-03-23T13:29:22;8.30;99.60
2260;DHT22;333;48.800;9.530;2024-03-23T13:31:50;8.70;99.60
2260;DHT22;333;48.800;9.530;2024-03-23T13:34:18;9.80;99.60
2260;DHT22;333;48.800;9.530;2024-03-23T13:36:44;10.20;99.60
2260;DHT22;333;48.800;9.530;2024-03-23T13:39:12;10.60;99.60
2260;DHT22;333;48.800;9.530;2024-03-23T13:41:38;10.70;99.60
2260;DHT22;333;48.800;9.530;2024-03-23T13:44:08;10.10;99.60
2260;DHT22;333;48.800;9.530;2024-03-23T13:46:35;9.70;99.60
2260;DHT22;333;48.800;9.530;2024-03-23T13:49:03;9.70;99.60
2260;DHT22;333;48.800;9.530;2024-03-23T13:51:29;9.50;99.60
2260;DHT22;333;48.800;9.530;2024-03-23T13:53:56;9.40;99.60
2260;DHT22;333;48.800;9.530;2024-03-23T13:56:22;9.40;99.60
2260;DHT22;333;48.800;9.530;2024-03-23T13:58:49;9.60;99.60
2260;DHT22;333;48.800;9.530;2024-03-23T14:01:17;9.90;99.60
2260;DHT22;333;48.800;9.530;2024-03-23T14:03:44;10.60;99.60
2260;DHT22;333;48.800;9.530;2024-03-23T14:06:10;11.30;99.60
2260;DHT22;333;48.800;9.530;2024-03-23T14:08:38;11.20;99.60
2260;DHT22;333;48.800;9.530;2024-03-23T14:11:05;11.60;99.60
2260;DHT22;333;48.800;9.530;2024-03-23T14:13:32;11.70;99.60
2260;DHT22;333;48.800;9.530;2024-03-23T14:15:58;11.60;99.60
2260;DHT22;333;48.800;9.530;2024-03-23T14:18:27;11.40;99.60
2260;DHT22;333;48.800;9.530;2024-03-23T14:20:56;10.90;99.60
2260;DHT22;333;48.800;9.530;2024-03-23T14:23:25;10.50;99.60
2260;DHT22;333;48.800;9.530;2024-03-23T14:25:53;10.10;99.60
2260;DHT22;333;48.800;9.530;2024-03-23T14:28:20;9.10;99.60
2260;DHT22;333;48.800;9.530;2024-03-23T14:30:47;8.10;99.60
2260;DHT22;333;48.800;9.530;2024-03-23T14:33:15;7.70;99.60
2260;DHT22;333;48.800;9.530;2024-03-23T14:35:42;7.30;99.60
2260;DHT22;333;48.800;9.530;2024-03-23T14:38:09;6.90;99.60
2260;DHT22;333;48.800;9.530;2024-03-23T14:40:36;6.70;99.60
2260;DHT22;333;48.800;9.530;2024-03-23T14:43:03;6.30;99.60
2260;DHT22;333;48.800;9.530;2024-03-23T14:45:29;5.80;99.60
2260;DHT22;333;48.800;9.530;2024-03-23T14:47:56;5.40;99.60
2260;DHT22;333;48.800;9.530;2024-03-23T14:50:23;5.40;99.60
2260;DHT22;333;48.800;9.530;2024-03-23T14:52:52;5.40;99.60
2260;DHT22;333;48.800;9.530;2024-03-23T14:55:18;5.60;99.60
2260;DHT22;333;48.800;9.530;2024-03-23T14:57:45;6.20;99.60
2260;DHT22;333;48.800;9.530;2024-03-23T15:00:11;6.60;99.60
2260;DHT22;333;48.800;9.530;2024-03-23T15:02:39;7.30;99.60
2260;DHT22;333;48.800;9.530;2024-03-23T15:05:05;8.10;99.60
2260;DHT22;333;48.800;9.530;2024-03-23T15:07:35;8.80;99.60
2260;DHT22;333;48.800;9.530;2024-03-23T15:10:02;8.70;99.60
2260;DHT22;333;48.800;9.530;2024-03-23T15:12:30;8.50;99.60
2260;DHT22;333;48.800;9.530;2024-03-23T15:14:58;8.60;99.60
2260;DHT22;333;48.800;9.530;2024-03-23T15:17:25;8.50;99.60
2260;DHT22;333;48.800;9.530;2024-03-23T15:19:51;8.00;99.60
2260;DHT22;333;48.800;9.530;2024-03-23T15:22:19;7.60;99.60
2260;DHT22;333;48.800;9.530;2024-03-23T15:24:46;7.60;99.60
2260;DHT22;333;48.800;9.530;2024-03-23T15:27:14;7.70;99.60
2260;DHT22;333;48.800;9.530;2024-03-23T15:29:40;7.70;99.60
2260;DHT22;333;48.800;9.530;2024-03-23T15:32:11;7.80;99.60
2260;DHT22;333;48.800;9.530;2024-03-23T15:34:37;8.00;99.60
2260;DHT22;333;48.800;9.530;2024-03-23T15:37:04;8.40;99.60
2260;DHT22;333;48.800;9.530;2024-03-23T15:39:30;8.80;99.60
2260;DHT22;333;48.800;9.530;2024-03-23T15:41:57;9.50;99.60
2260;DHT22;333;48.800;9.530;2024-03-23T15:44:25;10.30;99.60
2260;DHT22;333;48.800;9.530;2024-03-23T15:46:51;10.50;99.60
2260;DHT22;333;48.800;9.530;2024-03-23T15:49:17;10.20;99.60
2260;DHT22;333;48.800;9.530;2024-03-23T15:51:44;10.40;99.60
2260;DHT22;333;48.800;9.530;2024-03-23T15:54:11;10.60;99.60
2260;DHT22;333;48.800;9.530;2024-03-23T15:56:38;9.80;99.60
2260;DHT22;333;48.800;9.530;2024-03-23T15:59:04;9.60;99.60
2260;DHT22;333;48.800;9.530;2024-03-23T16:01:33;9.50;99.60
2260;DHT22;333;48.800;9.530;2024-03-23T16:04:00;8.80;99.60
2260;DHT22;333;48.800;9.530;2024-03-23T16:06:27;8.50;99.60
2260;DHT22;333;48.800;9.530;2024-03-23T16:08:53;8.70;99.60
2260;DHT22;333;48.800;9.530;2024-03-23T16:11:20;9.30;99.60
2260;DHT22;333;48.800;9.530;2024-03-23T16:13:46;9.60;99.60
2260;DHT22;333;48.800;9.530;2024-03-23T16:16:13;9.70;99.60
2260;DHT22;333;48.800;9.530;2024-03-23T16:18:40;10.20;99.60
2260;DHT22;333;48.800;9.530;2024-03-23T16:21:09;10.40;99.60
2260;DHT22;333;48.800;9.530;2024-03-23T16:23:35;10.30;99.60
2260;DHT22;333;48.800;9.530;2024-03-23T16:26:03;10.00;99.60
2260;DHT22;333;48.800;9.530;2024-03-23T16:28:31;9.30;99.60
2260;DHT22;333;48.800;9.530;2024-03-23T16:30:59;8.90;99.60
2260;DHT22;333;48.800;9.530;2024-03-23T16:33:25;8.80;99.60
2260;DHT22;333;48.800;9.530;2024-03-23T16:35:58;9.10;99.60
2260;DHT22;333;48.800;9.530;2024-03-23T16:38:24;9.50;99.60
2260;DHT22;333;48.800;9.530;2024-03-23T16:40:55;9.70;99.60
2260;DHT22;333;48.800;9.530;2024-03-23T16:43:22;9.60;99.60
2260;DHT22;333;48.800;9.530;2024-03-23T16:45:57;9.10;99.60
2260;DHT22;333;48.800;9.530;2024-03-23T16:48:24;8.70;99.60
2260;DHT22;333;48.800;9.530;2024-03-23T16:50:51;8.40;99.60
2260;DHT22;333;48.800;9.530;2024-03-23T16:53:19;8.20;99.60
2260;DHT22;333;48.800;9.530;2024-03-23T16:55:46;8.10;99.60
2260;DHT22;333;48.800;9.530;2024-03-23T16:58:12;8.10;99.60
2260;DHT22;333;48.800;9.530;2024-03-23T17:00:39;8.00;99.60
2260;DHT22;333;48.800;9.530;2024-03-23T17:03:05;8.00;99.60
2260;DHT22;333;48.800;9.530;2024-03-23T17:05:37;7.90;99.60
2260;DHT22;333;48.800;9.530;2024-03-23T17:08:04;7.90;99.60
2260;DHT22;333;48.800;9.530;2024-03-23T17:10:32;7.90;99.60
2260;DHT22;333;48.800;9.530;2024-03-23T17:12:58;8.00;99.60
2260;DHT22;333;48.800;9.530;2024-03-23T17:15:25;8.00;99.60
2260;DHT22;333;48.800;9.530;2024-03-23T17:17:51;7.90;99.60
2260;DHT22;333;48.800;9.530;2024-03-23T17:20:19;7.80;99.60
2260;DHT22;333;48.800;9.530;2024-03-23T17:22:45;7.10;99.60
2260;DHT22;333;48.800;9.530;2024-03-23T17:25:12;6.50;99.60